sensor_id;sensor_type;location;lat;lon;timestamp;temperature;humidity
46366;DHT22;32073;49.166;8.076;2022-11-06T00:02:35;10.70;59.30
46366;DHT22;32073;49.166;8.076;2022-11-06T00:06:36;10.70;59.30
46366;DHT22;32073;49.166;8.076;2022-11-06T00:10:48;10.60;59.20
46366;DHT22;32073;49.166;8.076;2022-11-06T00:14:49;10.60;59.20
46366;DHT22;32073;49.166;8.076;2022-11-06T00:18:50;10.50;59.20
46366;DHT22;32073;49.166;8.076;2022-11-06T00:22:50;10.50;59.30
46366;DHT22;32073;49.166;8.076;2022-11-06T00:26:51;10.40;59.30
46366;DHT22;32073;49.166;8.076;2022-11-06T00:31:03;10.30;59.50
46366;DHT22;32073;49.166;8.076;2022-11-06T00:35:05;10.30;59.70
46366;DHT22;32073;49.166;8.076;2022-11-06T00:39:08;10.30;59.60
46366;DHT22;32073;49.166;8.076;2022-11-06T00:43:10;10.30;59.80
46366;DHT22;32073;49.166;8.076;2022-11-06T00:47:11;10.30;59.70
46366;DHT22;32073;49.166;8.076;2022-11-06T00:51:18;10.20;59.60
46366;DHT22;32073;49.166;8.076;2022-11-06T00:55:22;10.20;59.60
46366;DHT22;32073;49.166;8.076;2022-11-06T00:59:23;10.20;59.50
46366;DHT22;32073;49.166;8.076;2022-11-06T01:03:24;10.20;59.60
46366;DHT22;32073;49.166;8.076;2022-11-06T01:07:24;10.10;59.70
46366;DHT22;32073;49.166;8.076;2022-11-06T01:11:37;10.10;59.70
46366;DHT22;32073;49.166;8.076;2022-11-06T01:15:39;10.10;60.00
46366;DHT22;32073;49.166;8.076;2022-11-06T01:19:39;10.10;59.70
46366;DHT22;32073;49.166;8.076;2022-11-06T01:23:41;10.00;59.60
46366;DHT22;32073;49.166;8.076;2022-11-06T01:27:42;10.00;60.20
46366;DHT22;32073;49.166;8.076;2022-11-06T01:31:43;9.90;59.60
46366;DHT22;32073;49.166;8.076;2022-11-06T01:35:48;9.90;59.80
46366;DHT22;32073;49.166;8.076;2022-11-06T01:39:49;9.90;60.00
46366;DHT22;32073;49.166;8.076;2022-11-06T01:43:54;9.80;60.00
46366;DHT22;32073;49.166;8.076;2022-11-06T01:47:56;9.80;60.20
46366;DHT22;32073;49.166;8.076;2022-11-06T01:52:01;9.80;60.20
46366;DHT22;32073;49.166;8.076;2022-11-06T01:56:07;9.80;60.30
46366;DHT22;32073;49.166;8.076;2022-11-06T02:00:09;9.90;60.20
46366;DHT22;32073;49.166;8.076;2022-11-06T02:08:23;9.80;60.30
46366;DHT22;32073;49.166;8.076;2022-11-06T02:17:03;9.70;60.60
46366;DHT22;32073;49.166;8.076;2022-11-06T02:21:25;9.70;60.60
46366;DHT22;32073;49.166;8.076;2022-11-06T02:26:03;9.60;60.20
46366;DHT22;32073;49.166;8.076;2022-11-06T02:30:11;9.60;60.50
46366;DHT22;32073;49.166;8.076;2022-11-06T02:34:14;9.50;60.20
46366;DHT22;32073;49.166;8.076;2022-11-06T02:38:22;9.50;60.40
46366;DHT22;32073;49.166;8.076;2022-11-06T02:42:27;9.40;60.40
46366;DHT22;32073;49.166;8.076;2022-11-06T02:46:37;9.50;60.40
46366;DHT22;32073;49.166;8.076;2022-11-06T02:50:43;9.40;60.20
46366;DHT22;32073;49.166;8.076;2022-11-06T02:54:59;9.40;60.30
46366;DHT22;32073;49.166;8.076;2022-11-06T02:59:17;9.30;60.20
46366;DHT22;32073;49.166;8.076;2022-11-06T03:03:27;9.20;60.20
46366;DHT22;32073;49.166;8.076;2022-11-06T03:07:40;9.20;60.40
46366;DHT22;32073;49.166;8.076;2022-11-06T03:11:56;9.10;60.40
46366;DHT22;32073;49.166;8.076;2022-11-06T03:16:32;9.10;61.30
46366;DHT22;32073;49.166;8.076;2022-11-06T03:25:10;9.00;60.60
46366;DHT22;32073;49.166;8.076;2022-11-06T03:29:40;8.90;60.60
46366;DHT22;32073;49.166;8.076;2022-11-06T03:33:49;9.00;61.00
46366;DHT22;32073;49.166;8.076;2022-11-06T03:38:08;8.90;60.90
46366;DHT22;32073;49.166;8.076;2022-11-06T03:42:26;8.90;61.10
46366;DHT22;32073;49.166;8.076;2022-11-06T03:46:28;8.90;60.80
46366;DHT22;32073;49.166;8.076;2022-11-06T03:50:43;8.80;60.70
46366;DHT22;32073;49.166;8.076;2022-11-06T03:54:59;8.80;60.90
46366;DHT22;32073;49.166;8.076;2022-11-06T03:59:04;8.80;61.00
46366;DHT22;32073;49.166;8.076;2022-11-06T04:03:28;8.80;60.90
46366;DHT22;32073;49.166;8.076;2022-11-06T04:07:38;8.80;61.10
46366;DHT22;32073;49.166;8.076;2022-11-06T04:11:43;8.80;61.10
46366;DHT22;32073;49.166;8.076;2022-11-06T04:16:04;8.80;60.90
46366;DHT22;32073;49.166;8.076;2022-11-06T04:20:11;8.60;60.80
46366;DHT22;32073;49.166;8.076;2022-11-06T04:24:44;8.70;61.00
46366;DHT22;32073;49.166;8.076;2022-11-06T04:43:13;8.60;61.30
46366;DHT22;32073;49.166;8.076;2022-11-06T04:47:22;8.50;61.50
46366;DHT22;32073;49.166;8.076;2022-11-06T04:51:27;8.50;61.20
46366;DHT22;32073;49.166;8.076;2022-11-06T04:55:31;8.50;61.50
46366;DHT22;32073;49.166;8.076;2022-11-06T04:59:34;8.50;61.40
46366;DHT22;32073;49.166;8.076;2022-11-06T05:03:36;8.50;61.40
46366;DHT22;32073;49.166;8.076;2022-11-06T05:07:36;8.50;61.40
46366;DHT22;32073;49.166;8.076;2022-11-06T05:11:37;8.60;61.40
46366;DHT22;32073;49.166;8.076;2022-11-06T05:15:38;8.50;61.40
46366;DHT22;32073;49.166;8.076;2022-11-06T05:19:38;8.60;61.40
46366;DHT22;32073;49.166;8.076;2022-11-06T05:23:40;8.60;61.30
46366;DHT22;32073;49.166;8.076;2022-11-06T05:27:41;8.50;61.30
46366;DHT22;32073;49.166;8.076;2022-11-06T05:31:41;8.60;61.30
46366;DHT22;32073;49.166;8.076;2022-11-06T05:35:42;8.50;61.20
46366;DHT22;32073;49.166;8.076;2022-11-06T05:39:43;8.60;61.30
46366;DHT22;32073;49.166;8.076;2022-11-06T05:43:44;8.50;61.20
46366;DHT22;32073;49.166;8.076;2022-11-06T05:47:44;8.50;61.20
46366;DHT22;32073;49.166;8.076;2022-11-06T05:51:45;8.50;61.20
46366;DHT22;32073;49.166;8.076;2022-11-06T05:55:46;8.50;61.10
46366;DHT22;32073;49.166;8.076;2022-11-06T05:59:47;8.40;61.00
46366;DHT22;32073;49.166;8.076;2022-11-06T06:03:47;8.40;60.90
46366;DHT22;32073;49.166;8.076;2022-11-06T06:07:48;8.40;60.90
46366;DHT22;32073;49.166;8.076;2022-11-06T06:11:52;8.30;60.90
46366;DHT22;32073;49.166;8.076;2022-11-06T06:15:53;8.30;61.00
46366;DHT22;32073;49.166;8.076;2022-11-06T06:19:54;8.30;60.90
46366;DHT22;32073;49.166;8.076;2022-11-06T06:23:54;8.20;60.80
46366;DHT22;32073;49.166;8.076;2022-11-06T06:27:56;8.20;60.70
46366;DHT22;32073;49.166;8.076;2022-11-06T06:31:57;8.20;60.70
46366;DHT22;32073;49.166;8.076;2022-11-06T06:35:57;8.20;60.90
46366;DHT22;32073;49.166;8.076;2022-11-06T06:40:02;8.10;61.10
46366;DHT22;32073;49.166;8.076;2022-11-06T06:44:03;8.20;61.30
46366;DHT22;32073;49.166;8.076;2022-11-06T06:48:06;8.20;61.30
46366;DHT22;32073;49.166;8.076;2022-11-06T06:52:06;8.20;61.30
46366;DHT22;32073;49.166;8.076;2022-11-06T06:56:08;8.20;61.30
46366;DHT22;32073;49.166;8.076;2022-11-06T07:00:10;8.30;61.40
46366;DHT22;32073;49.166;8.076;2022-11-06T07:04:12;8.30;61.70
46366;DHT22;32073;49.166;8.076;2022-11-06T07:08:13;8.30;61.90
46366;DHT22;32073;49.166;8.076;2022-11-06T07:12:14;8.30;62.10
46366;DHT22;32073;49.166;8.076;2022-11-06T07:16:14;8.40;62.00
46366;DHT22;32073;49.166;8.076;2022-11-06T07:20:15;8.40;62.10
46366;DHT22;32073;49.166;8.076;2022-11-06T07:24:16;8.50;62.30
46366;DHT22;32073;49.166;8.076;2022-11-06T07:28:17;8.50;62.30
46366;DHT22;32073;49.166;8.076;2022-11-06T07:32:18;8.50;62.30
46366;DHT22;32073;49.166;8.076;2022-11-06T07:36:18;8.50;62.30
46366;DHT22;32073;49.166;8.076;2022-11-06T07:40:19;8.60;62.50
46366;DHT22;32073;49.166;8.076;2022-11-06T07:44:20;8.60;63.10
46366;DHT22;32073;49.166;8.076;2022-11-06T07:48:20;8.70;62.60
46366;DHT22;32073;49.166;8.076;2022-11-06T07:52:21;8.70;62.70
46366;DHT22;32073;49.166;8.076;2022-11-06T07:56:22;8.80;63.00
46366;DHT22;32073;49.166;8.076;2022-11-06T08:00:23;8.90;63.00
46366;DHT22;32073;49.166;8.076;2022-11-06T08:04:24;8.90;62.90
46366;DHT22;32073;49.166;8.076;2022-11-06T08:08:26;9.00;63.00
46366;DHT22;32073;49.166;8.076;2022-11-06T08:12:27;9.00;63.00
46366;DHT22;32073;49.166;8.076;2022-11-06T08:16:28;9.10;63.10
46366;DHT22;32073;49.166;8.076;2022-11-06T08:20:28;9.10;63.00
46366;DHT22;32073;49.166;8.076;2022-11-06T08:24:29;9.20;62.70
46366;DHT22;32073;49.166;8.076;2022-11-06T08:28:30;9.30;62.70
46366;DHT22;32073;49.166;8.076;2022-11-06T08:32:31;9.30;62.80
46366;DHT22;32073;49.166;8.076;2022-11-06T08:36:36;9.30;62.70
46366;DHT22;32073;49.166;8.076;2022-11-06T08:40:39;9.40;63.00
46366;DHT22;32073;49.166;8.076;2022-11-06T08:44:39;9.40;62.80
46366;DHT22;32073;49.166;8.076;2022-11-06T08:48:41;9.40;62.80
46366;DHT22;32073;49.166;8.076;2022-11-06T08:52:42;9.40;63.00
46366;DHT22;32073;49.166;8.076;2022-11-06T08:56:45;9.60;63.10
46366;DHT22;32073;49.166;8.076;2022-11-06T09:00:48;9.50;63.80
46366;DHT22;32073;49.166;8.076;2022-11-06T09:04:52;9.60;63.40
46366;DHT22;32073;49.166;8.076;2022-11-06T09:08:53;9.70;63.50
46366;DHT22;32073;49.166;8.076;2022-11-06T09:12:57;9.70;63.60
46366;DHT22;32073;49.166;8.076;2022-11-06T09:16:58;9.80;63.90
46366;DHT22;32073;49.166;8.076;2022-11-06T09:20:59;9.90;63.90
46366;DHT22;32073;49.166;8.076;2022-11-06T09:25:00;10.00;64.00
46366;DHT22;32073;49.166;8.076;2022-11-06T09:29:03;10.10;63.90
46366;DHT22;32073;49.166;8.076;2022-11-06T09:33:07;10.20;64.00
46366;DHT22;32073;49.166;8.076;2022-11-06T09:37:10;10.30;64.10
46366;DHT22;32073;49.166;8.076;2022-11-06T09:41:18;10.40;64.00
46366;DHT22;32073;49.166;8.076;2022-11-06T09:45:31;10.40;64.30
46366;DHT22;32073;49.166;8.076;2022-11-06T09:49:51;10.50;64.10
46366;DHT22;32073;49.166;8.076;2022-11-06T09:54:02;10.60;64.50
46366;DHT22;32073;49.166;8.076;2022-11-06T10:02:31;10.90;64.80
46366;DHT22;32073;49.166;8.076;2022-11-06T10:06:44;11.00;64.70
46366;DHT22;32073;49.166;8.076;2022-11-06T10:20:53;11.40;64.30
46366;DHT22;32073;49.166;8.076;2022-11-06T10:25:23;11.60;63.90
46366;DHT22;32073;49.166;8.076;2022-11-06T10:30:09;11.60;63.80
46366;DHT22;32073;49.166;8.076;2022-11-06T10:34:14;11.70;63.50
46366;DHT22;32073;49.166;8.076;2022-11-06T10:38:29;11.70;63.50
46366;DHT22;32073;49.166;8.076;2022-11-06T10:42:39;11.70;63.50
46366;DHT22;32073;49.166;8.076;2022-11-06T10:46:45;11.70;63.30
46366;DHT22;32073;49.166;8.076;2022-11-06T10:56:01;11.70;63.00
46366;DHT22;32073;49.166;8.076;2022-11-06T11:00:14;11.70;63.00
46366;DHT22;32073;49.166;8.076;2022-11-06T11:04:15;11.70;63.20
46366;DHT22;32073;49.166;8.076;2022-11-06T11:08:36;11.80;63.40
46366;DHT22;32073;49.166;8.076;2022-11-06T11:12:44;11.80;63.30
46366;DHT22;32073;49.166;8.076;2022-11-06T11:16:46;11.80;63.20
46366;DHT22;32073;49.166;8.076;2022-11-06T11:20:50;11.90;63.20
46366;DHT22;32073;49.166;8.076;2022-11-06T11:25:06;11.90;63.00
46366;DHT22;32073;49.166;8.076;2022-11-06T11:29:14;12.00;62.90
46366;DHT22;32073;49.166;8.076;2022-11-06T11:33:25;12.00;62.90
46366;DHT22;32073;49.166;8.076;2022-11-06T11:37:31;12.10;62.90
46366;DHT22;32073;49.166;8.076;2022-11-06T11:41:33;12.10;62.60
46366;DHT22;32073;49.166;8.076;2022-11-06T11:45:33;12.20;63.30
46366;DHT22;32073;49.166;8.076;2022-11-06T11:49:35;12.20;62.60
46366;DHT22;32073;49.166;8.076;2022-11-06T11:53:37;12.30;62.80
46366;DHT22;32073;49.166;8.076;2022-11-06T11:57:43;12.30;63.00
46366;DHT22;32073;49.166;8.076;2022-11-06T12:01:45;12.40;62.70
46366;DHT22;32073;49.166;8.076;2022-11-06T12:05:47;12.40;62.80
46366;DHT22;32073;49.166;8.076;2022-11-06T12:09:47;12.50;62.90
46366;DHT22;32073;49.166;8.076;2022-11-06T12:14:15;12.60;62.90
46366;DHT22;32073;49.166;8.076;2022-11-06T12:18:35;12.70;62.80
46366;DHT22;32073;49.166;8.076;2022-11-06T12:22:43;12.80;63.10
46366;DHT22;32073;49.166;8.076;2022-11-06T12:26:54;12.80;63.10
46366;DHT22;32073;49.166;8.076;2022-11-06T12:31:06;13.00;62.50
46366;DHT22;32073;49.166;8.076;2022-11-06T12:35:25;13.00;62.50
46366;DHT22;32073;49.166;8.076;2022-11-06T12:39:31;13.10;62.20
46366;DHT22;32073;49.166;8.076;2022-11-06T12:43:46;13.10;62.20
46366;DHT22;32073;49.166;8.076;2022-11-06T12:48:00;13.20;62.10
46366;DHT22;32073;49.166;8.076;2022-11-06T12:52:45;13.20;62.00
46366;DHT22;32073;49.166;8.076;2022-11-06T13:01:59;13.40;62.10
46366;DHT22;32073;49.166;8.076;2022-11-06T13:15:23;13.50;61.40
46366;DHT22;32073;49.166;8.076;2022-11-06T13:24:15;13.40;61.20
46366;DHT22;32073;49.166;8.076;2022-11-06T13:33:04;13.40;61.00
46366;DHT22;32073;49.166;8.076;2022-11-06T13:37:12;13.30;61.20
46366;DHT22;32073;49.166;8.076;2022-11-06T13:41:22;13.40;61.70
46366;DHT22;32073;49.166;8.076;2022-11-06T13:45:29;13.40;61.30
46366;DHT22;32073;49.166;8.076;2022-11-06T14:08:27;13.30;61.20
46366;DHT22;32073;49.166;8.076;2022-11-06T14:13:06;13.30;61.40
46366;DHT22;32073;49.166;8.076;2022-11-06T14:17:25;13.40;61.40
46366;DHT22;32073;49.166;8.076;2022-11-06T14:21:59;13.40;61.10
46366;DHT22;32073;49.166;8.076;2022-11-06T14:26:56;13.50;61.10
46366;DHT22;32073;49.166;8.076;2022-11-06T14:36:34;13.60;61.00
46366;DHT22;32073;49.166;8.076;2022-11-06T14:41:00;13.70;61.10
46366;DHT22;32073;49.166;8.076;2022-11-06T14:45:17;13.60;61.00
46366;DHT22;32073;49.166;8.076;2022-11-06T14:49:38;13.60;60.80
46366;DHT22;32073;49.166;8.076;2022-11-06T14:53:48;13.60;60.70
46366;DHT22;32073;49.166;8.076;2022-11-06T14:58:13;13.60;61.00
46366;DHT22;32073;49.166;8.076;2022-11-06T15:02:29;13.60;60.70
46366;DHT22;32073;49.166;8.076;2022-11-06T15:07:05;13.50;60.80
46366;DHT22;32073;49.166;8.076;2022-11-06T15:15:55;13.50;60.80
46366;DHT22;32073;49.166;8.076;2022-11-06T15:20:17;13.50;60.70
46366;DHT22;32073;49.166;8.076;2022-11-06T15:24:33;13.40;60.70
46366;DHT22;32073;49.166;8.076;2022-11-06T15:28:52;13.50;60.80
46366;DHT22;32073;49.166;8.076;2022-11-06T15:33:16;13.40;60.60
46366;DHT22;32073;49.166;8.076;2022-11-06T15:37:54;13.40;60.70
46366;DHT22;32073;49.166;8.076;2022-11-06T15:42:18;13.40;60.60
46366;DHT22;32073;49.166;8.076;2022-11-06T15:46:28;13.40;60.70
46366;DHT22;32073;49.166;8.076;2022-11-06T15:50:40;13.30;60.60
46366;DHT22;32073;49.166;8.076;2022-11-06T15:54:52;13.30;60.60
46366;DHT22;32073;49.166;8.076;2022-11-06T15:59:10;13.30;60.60
46366;DHT22;32073;49.166;8.076;2022-11-06T16:03:28;13.20;60.40
46366;DHT22;32073;49.166;8.076;2022-11-06T16:07:35;13.20;60.20
46366;DHT22;32073;49.166;8.076;2022-11-06T16:11:59;13.20;60.40
46366;DHT22;32073;49.166;8.076;2022-11-06T16:16:03;13.20;60.30
46366;DHT22;32073;49.166;8.076;2022-11-06T16:20:46;13.20;60.50
46366;DHT22;32073;49.166;8.076;2022-11-06T16:25:14;13.20;60.60
46366;DHT22;32073;49.166;8.076;2022-11-06T16:29:30;13.10;60.70
46366;DHT22;32073;49.166;8.076;2022-11-06T16:33:36;13.10;60.80
46366;DHT22;32073;49.166;8.076;2022-11-06T16:37:43;13.00;60.90
46366;DHT22;32073;49.166;8.076;2022-11-06T16:42:02;13.00;61.00
46366;DHT22;32073;49.166;8.076;2022-11-06T16:46:29;13.10;60.90
46366;DHT22;32073;49.166;8.076;2022-11-06T16:51:15;13.10;61.10
46366;DHT22;32073;49.166;8.076;2022-11-06T16:55:40;13.00;61.10
46366;DHT22;32073;49.166;8.076;2022-11-06T16:59:56;13.10;61.30
46366;DHT22;32073;49.166;8.076;2022-11-06T17:04:23;13.10;61.40
46366;DHT22;32073;49.166;8.076;2022-11-06T17:08:42;13.00;61.30
46366;DHT22;32073;49.166;8.076;2022-11-06T17:12:46;13.00;61.30
46366;DHT22;32073;49.166;8.076;2022-11-06T17:21:00;13.00;61.20
46366;DHT22;32073;49.166;8.076;2022-11-06T17:25:30;13.00;61.20
46366;DHT22;32073;49.166;8.076;2022-11-06T17:29:31;13.00;61.20
46366;DHT22;32073;49.166;8.076;2022-11-06T17:33:32;13.00;61.00
46366;DHT22;32073;49.166;8.076;2022-11-06T17:37:35;12.90;61.10
46366;DHT22;32073;49.166;8.076;2022-11-06T17:41:36;12.90;61.10
46366;DHT22;32073;49.166;8.076;2022-11-06T17:45:40;12.90;61.10
46366;DHT22;32073;49.166;8.076;2022-11-06T17:49:43;12.80;61.20
46366;DHT22;32073;49.166;8.076;2022-11-06T17:53:47;12.70;61.10
46366;DHT22;32073;49.166;8.076;2022-11-06T17:57:47;12.80;61.20
46366;DHT22;32073;49.166;8.076;2022-11-06T18:01:49;12.70;61.20
46366;DHT22;32073;49.166;8.076;2022-11-06T18:05:50;12.70;61.30
46366;DHT22;32073;49.166;8.076;2022-11-06T18:09:51;12.70;61.40
46366;DHT22;32073;49.166;8.076;2022-11-06T18:13:51;12.80;61.50
46366;DHT22;32073;49.166;8.076;2022-11-06T18:17:52;12.70;61.40
46366;DHT22;32073;49.166;8.076;2022-11-06T18:21:53;12.80;61.50
46366;DHT22;32073;49.166;8.076;2022-11-06T18:25:55;12.80;61.40
46366;DHT22;32073;49.166;8.076;2022-11-06T18:29:56;12.80;61.50
46366;DHT22;32073;49.166;8.076;2022-11-06T18:33:57;12.80;61.50
46366;DHT22;32073;49.166;8.076;2022-11-06T18:37:58;12.80;61.50
46366;DHT22;32073;49.166;8.076;2022-11-06T18:41:58;12.90;61.60
46366;DHT22;32073;49.166;8.076;2022-11-06T18:46:07;12.90;61.60
46366;DHT22;32073;49.166;8.076;2022-11-06T18:50:09;12.90;61.70
46366;DHT22;32073;49.166;8.076;2022-11-06T18:54:11;12.90;61.60
46366;DHT22;32073;49.166;8.076;2022-11-06T18:58:12;12.90;61.60
46366;DHT22;32073;49.166;8.076;2022-11-06T19:02:12;12.90;61.70
46366;DHT22;32073;49.166;8.076;2022-11-06T19:06:16;12.90;61.80
46366;DHT22;32073;49.166;8.076;2022-11-06T19:10:17;12.80;61.80
46366;DHT22;32073;49.166;8.076;2022-11-06T19:14:18;12.90;61.90
46366;DHT22;32073;49.166;8.076;2022-11-06T19:18:19;12.90;62.00
46366;DHT22;32073;49.166;8.076;2022-11-06T19:22:19;12.90;62.10
46366;DHT22;32073;49.166;8.076;2022-11-06T19:26:20;12.90;62.10
46366;DHT22;32073;49.166;8.076;2022-11-06T19:30:21;12.90;62.00
46366;DHT22;32073;49.166;8.076;2022-11-06T19:34:21;13.00;62.10
46366;DHT22;32073;49.166;8.076;2022-11-06T19:38:24;12.90;62.10
46366;DHT22;32073;49.166;8.076;2022-11-06T19:42:25;13.00;62.10
46366;DHT22;32073;49.166;8.076;2022-11-06T19:46:26;13.00;62.10
46366;DHT22;32073;49.166;8.076;2022-11-06T19:50:27;13.00;62.00
46366;DHT22;32073;49.166;8.076;2022-11-06T19:54:27;13.00;61.90
46366;DHT22;32073;49.166;8.076;2022-11-06T19:58:29;13.10;62.70
46366;DHT22;32073;49.166;8.076;2022-11-06T20:02:30;13.10;61.90
46366;DHT22;32073;49.166;8.076;2022-11-06T20:06:30;13.10;61.90
46366;DHT22;32073;49.166;8.076;2022-11-06T20:10:32;13.10;61.90
46366;DHT22;32073;49.166;8.076;2022-11-06T20:14:34;13.10;61.90
46366;DHT22;32073;49.166;8.076;2022-11-06T20:18:35;13.10;61.80
46366;DHT22;32073;49.166;8.076;2022-11-06T20:22:36;13.10;61.80
46366;DHT22;32073;49.166;8.076;2022-11-06T20:26:37;13.10;61.80
46366;DHT22;32073;49.166;8.076;2022-11-06T20:30:38;13.10;61.70
46366;DHT22;32073;49.166;8.076;2022-11-06T20:34:39;13.20;61.80
46366;DHT22;32073;49.166;8.076;2022-11-06T20:38:40;13.20;61.70
46366;DHT22;32073;49.166;8.076;2022-11-06T20:42:44;13.20;61.90
46366;DHT22;32073;49.166;8.076;2022-11-06T20:46:45;13.20;62.00
46366;DHT22;32073;49.166;8.076;2022-11-06T20:51:06;13.20;62.10
46366;DHT22;32073;49.166;8.076;2022-11-06T20:55:07;13.20;62.10
46366;DHT22;32073;49.166;8.076;2022-11-06T20:59:22;13.20;62.00
46366;DHT22;32073;49.166;8.076;2022-11-06T21:03:53;13.20;62.10
46366;DHT22;32073;49.166;8.076;2022-11-06T21:07:55;13.20;62.00
46366;DHT22;32073;49.166;8.076;2022-11-06T21:11:56;13.20;62.50
46366;DHT22;32073;49.166;8.076;2022-11-06T21:16:01;13.20;61.90
46366;DHT22;32073;49.166;8.076;2022-11-06T21:20:04;13.30;61.90
46366;DHT22;32073;49.166;8.076;2022-11-06T21:24:06;13.30;61.90
46366;DHT22;32073;49.166;8.076;2022-11-06T21:28:07;13.30;61.80
46366;DHT22;32073;49.166;8.076;2022-11-06T21:32:08;13.30;61.90
46366;DHT22;32073;49.166;8.076;2022-11-06T21:36:11;13.40;62.00
46366;DHT22;32073;49.166;8.076;2022-11-06T21:40:13;13.40;61.90
46366;DHT22;32073;49.166;8.076;2022-11-06T21:44:17;13.40;62.00
46366;DHT22;32073;49.166;8.076;2022-11-06T21:48:18;13.40;61.90
46366;DHT22;32073;49.166;8.076;2022-11-06T21:52:22;13.40;61.90
46366;DHT22;32073;49.166;8.076;2022-11-06T21:56:42;13.40;61.80
46366;DHT22;32073;49.166;8.076;2022-11-06T22:00:43;13.40;61.90
46366;DHT22;32073;49.166;8.076;2022-11-06T22:04:43;13.40;61.90
46366;DHT22;32073;49.166;8.076;2022-11-06T22:08:45;13.40;61.90
46366;DHT22;32073;49.166;8.076;2022-11-06T22:12:46;13.50;61.90
46366;DHT22;32073;49.166;8.076;2022-11-06T22:16:47;13.50;61.90
46366;DHT22;32073;49.166;8.076;2022-11-06T22:20:48;13.50;61.90
46366;DHT22;32073;49.166;8.076;2022-11-06T22:24:48;13.50;61.90
46366;DHT22;32073;49.166;8.076;2022-11-06T22:28:53;13.50;62.00
46366;DHT22;32073;49.166;8.076;2022-11-06T22:32:55;13.50;62.10
46366;DHT22;32073;49.166;8.076;2022-11-06T22:36:56;13.50;62.10
46366;DHT22;32073;49.166;8.076;2022-11-06T22:40:58;13.50;62.20
46366;DHT22;32073;49.166;8.076;2022-11-06T22:45:00;13.50;62.30
46366;DHT22;32073;49.166;8.076;2022-11-06T22:49:00;13.40;62.40
46366;DHT22;32073;49.166;8.076;2022-11-06T22:53:01;13.50;62.40
46366;DHT22;32073;49.166;8.076;2022-11-06T22:57:02;13.50;62.50
46366;DHT22;32073;49.166;8.076;2022-11-06T23:01:03;13.40;62.60
46366;DHT22;32073;49.166;8.076;2022-11-06T23:05:04;13.50;62.70
46366;DHT22;32073;49.166;8.076;2022-11-06T23:09:05;13.50;62.70
46366;DHT22;32073;49.166;8.076;2022-11-06T23:13:06;13.50;62.90
46366;DHT22;32073;49.166;8.076;2022-11-06T23:17:06;13.50;63.00
46366;DHT22;32073;49.166;8.076;2022-11-06T23:25:16;13.50;63.30
46366;DHT22;32073;49.166;8.076;2022-11-06T23:29:18;13.50;63.10
46366;DHT22;32073;49.166;8.076;2022-11-06T23:33:19;13.50;63.10
46366;DHT22;32073;49.166;8.076;2022-11-06T23:37:20;13.50;63.20
46366;DHT22;32073;49.166;8.076;2022-11-06T23:41:21;13.50;63.20
46366;DHT22;32073;49.166;8.076;2022-11-06T23:45:40;13.50;63.30
46366;DHT22;32073;49.166;8.076;2022-11-06T23:49:50;13.50;63.30
46366;DHT22;32073;49.166;8.076;2022-11-06T23:53:52;13.50;63.40
46366;DHT22;32073;49.166;8.076;2022-11-06T23:57:53;13.50;63.50
